sensor_id;sensor_type;location;lat;lon;timestamp;pressure;altitude;pressure_sealevel;temperature;humidity
69955;BME280;57279;55.912;37.490;2023-05-24T00:01:16;99347.94;;;15.09;80.83
69955;BME280;57279;55.912;37.490;2023-05-24T00:03:53;99352.25;;;15.10;80.34
69955;BME280;57279;55.912;37.490;2023-05-24T00:06:24;99346.81;;;15.10;80.66
69955;BME280;57279;55.912;37.490;2023-05-24T00:08:51;99344.91;;;15.10;80.60
69955;BME280;57279;55.912;37.490;2023-05-24T00:11:17;99346.00;;;15.09;80.31
69955;BME280;57279;55.912;37.490;2023-05-24T00:13:43;99345.22;;;15.09;80.39
69955;BME280;57279;55.912;37.490;2023-05-24T00:16:09;99345.22;;;15.09;80.08
69955;BME280;57279;55.912;37.490;2023-05-24T00:18:35;99335.94;;;15.10;79.90
69955;BME280;57279;55.912;37.490;2023-05-24T00:21:06;99337.06;;;15.09;79.73
69955;BME280;57279;55.912;37.490;2023-05-24T00:23:33;99339.47;;;15.10;79.64
69955;BME280;57279;55.912;37.490;2023-05-24T00:25:59;99338.13;;;15.08;80.18
69955;BME280;57279;55.912;37.490;2023-05-24T00:28:26;99333.00;;;15.06;80.05
69955;BME280;57279;55.912;37.490;2023-05-24T00:30:51;99331.09;;;15.07;80.18
69955;BME280;57279;55.912;37.490;2023-05-24T00:33:17;99338.13;;;15.08;79.98
69955;BME280;57279;55.912;37.490;2023-05-24T00:35:44;99334.63;;;15.07;79.87
69955;BME280;57279;55.912;37.490;2023-05-24T00:38:10;99330.28;;;15.06;79.26
69955;BME280;57279;55.912;37.490;2023-05-24T00:40:35;99330.56;;;15.04;78.44
69955;BME280;57279;55.912;37.490;2023-05-24T00:43:01;99324.84;;;15.06;78.05
69955;BME280;57279;55.912;37.490;2023-05-24T00:45:27;99328.09;;;15.08;78.17
69955;BME280;57279;55.912;37.490;2023-05-24T00:47:53;99327.25;;;15.08;78.05
69955;BME280;57279;55.912;37.490;2023-05-24T00:50:19;99331.09;;;15.07;78.11
69955;BME280;57279;55.912;37.490;2023-05-24T00:52:46;99331.09;;;15.07;78.12
69955;BME280;57279;55.912;37.490;2023-05-24T00:55:13;99332.41;;;15.09;77.65
69955;BME280;57279;55.912;37.490;2023-05-24T00:57:39;99322.34;;;15.10;77.59
69955;BME280;57279;55.912;37.490;2023-05-24T01:00:05;99332.13;;;15.11;78.00
69955;BME280;57279;55.912;37.490;2023-05-24T01:02:32;99326.19;;;15.09;78.15
69955;BME280;57279;55.912;37.490;2023-05-24T01:04:58;99327.56;;;15.06;78.00
69955;BME280;57279;55.912;37.490;2023-05-24T01:13:15;99314.25;;;15.04;78.72
69955;BME280;57279;55.912;37.490;2023-05-24T01:15:54;99315.06;;;15.05;79.09
69955;BME280;57279;55.912;37.490;2023-05-24T01:24:24;99308.81;;;15.04;78.65
69955;BME280;57279;55.912;37.490;2023-05-24T01:27:12;99305.28;;;15.04;78.60
69955;BME280;57279;55.912;37.490;2023-05-24T01:29:39;99306.41;;;15.03;78.43
69955;BME280;57279;55.912;37.490;2023-05-24T01:32:05;99302.03;;;15.02;79.07
69955;BME280;57279;55.912;37.490;2023-05-24T01:34:31;99299.63;;;15.00;78.87
69955;BME280;57279;55.912;37.490;2023-05-24T01:36:57;99294.47;;;14.99;79.41
69955;BME280;57279;55.912;37.490;2023-05-24T01:39:28;99295.56;;;14.98;79.47
69955;BME280;57279;55.912;37.490;2023-05-24T01:44:43;99293.13;;;14.96;79.30
69955;BME280;57279;55.912;37.490;2023-05-24T01:49:45;99292.28;;;15.01;79.46
69955;BME280;57279;55.912;37.490;2023-05-24T01:52:15;99291.47;;;15.00;79.92
69955;BME280;57279;55.912;37.490;2023-05-24T01:54:47;99292.56;;;14.99;80.67
69955;BME280;57279;55.912;37.490;2023-05-24T01:57:18;99290.41;;;14.96;80.34
69955;BME280;57279;55.912;37.490;2023-05-24T01:59:44;99295.66;;;14.93;80.32
69955;BME280;57279;55.912;37.490;2023-05-24T02:02:12;99298.94;;;14.90;80.24
69955;BME280;57279;55.912;37.490;2023-05-24T02:04:39;99300.63;;;14.85;80.31
69955;BME280;57279;55.912;37.490;2023-05-24T02:07:05;99297.91;;;14.85;80.33
69955;BME280;57279;55.912;37.490;2023-05-24T02:09:31;99293.28;;;14.86;79.76
69955;BME280;57279;55.912;37.490;2023-05-24T02:11:57;99294.66;;;14.83;79.48
69955;BME280;57279;55.912;37.490;2023-05-24T02:14:23;99296.00;;;14.86;79.26
69955;BME280;57279;55.912;37.490;2023-05-24T02:16:49;99293.78;;;14.88;79.17
69955;BME280;57279;55.912;37.490;2023-05-24T02:19:15;99302.22;;;14.86;78.58
69955;BME280;57279;55.912;37.490;2023-05-24T02:21:44;99304.13;;;14.86;78.39
69955;BME280;57279;55.912;37.490;2023-05-24T02:24:10;99302.53;;;14.85;78.22
69955;BME280;57279;55.912;37.490;2023-05-24T02:26:37;99300.91;;;14.84;78.04
69955;BME280;57279;55.912;37.490;2023-05-24T02:29:03;99295.50;;;14.79;77.93
69955;BME280;57279;55.912;37.490;2023-05-24T02:31:29;99298.53;;;14.77;78.17
69955;BME280;57279;55.912;37.490;2023-05-24T02:33:56;99297.16;;;14.80;78.28
69955;BME280;57279;55.912;37.490;2023-05-24T02:36:21;99298.22;;;14.79;77.85
69955;BME280;57279;55.912;37.490;2023-05-24T02:38:49;99294.44;;;14.80;77.86
69955;BME280;57279;55.912;37.490;2023-05-24T02:41:14;99297.72;;;14.77;77.72
69955;BME280;57279;55.912;37.490;2023-05-24T02:43:46;99295.81;;;14.77;77.29
69955;BME280;57279;55.912;37.490;2023-05-24T02:46:13;99296.13;;;14.76;77.50
69955;BME280;57279;55.912;37.490;2023-05-24T02:48:38;99289.28;;;14.78;77.40
69955;BME280;57279;55.912;37.490;2023-05-24T02:51:04;99285.25;;;14.76;77.34
69955;BME280;57279;55.912;37.490;2023-05-24T02:53:30;99285.75;;;14.78;76.80
69955;BME280;57279;55.912;37.490;2023-05-24T02:55:57;99284.94;;;14.77;76.98
69955;BME280;57279;55.912;37.490;2023-05-24T02:58:24;99285.47;;;14.79;76.82
69955;BME280;57279;55.912;37.490;2023-05-24T03:00:54;99280.03;;;14.79;76.78
69955;BME280;57279;55.912;37.490;2023-05-24T03:03:20;99275.94;;;14.82;77.30
69955;BME280;57279;55.912;37.490;2023-05-24T03:05:46;99284.59;;;14.84;77.06
69955;BME280;57279;55.912;37.490;2023-05-24T03:08:12;99284.31;;;14.85;77.04
69955;BME280;57279;55.912;37.490;2023-05-24T03:10:38;99287.56;;;14.88;77.02
69955;BME280;57279;55.912;37.490;2023-05-24T03:13:05;99285.88;;;14.92;77.16
69955;BME280;57279;55.912;37.490;2023-05-24T03:15:31;99276.03;;;14.96;76.78
69955;BME280;57279;55.912;37.490;2023-05-24T03:17:57;99283.91;;;14.97;76.88
69955;BME280;57279;55.912;37.490;2023-05-24T03:20:23;99289.84;;;14.99;77.06
69955;BME280;57279;55.912;37.490;2023-05-24T03:22:50;99284.13;;;15.01;77.13
69955;BME280;57279;55.912;37.490;2023-05-24T03:25:15;99284.66;;;15.03;77.08
69955;BME280;57279;55.912;37.490;2023-05-24T03:27:41;99276.72;;;15.07;77.19
69955;BME280;57279;55.912;37.490;2023-05-24T03:30:08;99285.09;;;15.10;77.08
69955;BME280;57279;55.912;37.490;2023-05-24T03:32:41;99276.66;;;15.12;76.94
69955;BME280;57279;55.912;37.490;2023-05-24T03:35:07;99272.31;;;15.11;76.86
69955;BME280;57279;55.912;37.490;2023-05-24T03:37:36;99270.09;;;15.13;76.67
69955;BME280;57279;55.912;37.490;2023-05-24T03:40:03;99274.75;;;15.12;76.36
69955;BME280;57279;55.912;37.490;2023-05-24T03:42:43;99274.13;;;15.15;76.72
69955;BME280;57279;55.912;37.490;2023-05-24T03:45:10;99279.00;;;15.18;76.58
69955;BME280;57279;55.912;37.490;2023-05-24T03:47:36;99282.47;;;15.24;76.71
69955;BME280;57279;55.912;37.490;2023-05-24T03:50:02;99276.22;;;15.23;76.31
69955;BME280;57279;55.912;37.490;2023-05-24T03:52:29;99276.75;;;15.25;76.21
69955;BME280;57279;55.912;37.490;2023-05-24T03:54:54;99267.69;;;15.30;76.20
69955;BME280;57279;55.912;37.490;2023-05-24T03:57:20;99265.19;;;15.34;76.12
69955;BME280;57279;55.912;37.490;2023-05-24T03:59:46;99271.94;;;15.36;76.30
69955;BME280;57279;55.912;37.490;2023-05-24T04:02:12;99265.72;;;15.36;76.16
69955;BME280;57279;55.912;37.490;2023-05-24T04:04:38;99259.19;;;15.37;75.96
69955;BME280;57279;55.912;37.490;2023-05-24T04:07:04;99252.84;;;15.41;76.11
69955;BME280;57279;55.912;37.490;2023-05-24T04:09:30;99243.81;;;15.46;76.14
69955;BME280;57279;55.912;37.490;2023-05-24T04:11:55;99250.00;;;15.52;75.34
69955;BME280;57279;55.912;37.490;2023-05-24T04:14:21;99254.25;;;15.58;75.40
69955;BME280;57279;55.912;37.490;2023-05-24T04:16:47;99253.63;;;15.61;75.02
69955;BME280;57279;55.912;37.490;2023-05-24T04:19:12;99248.84;;;15.72;75.07
69955;BME280;57279;55.912;37.490;2023-05-24T04:21:38;99256.78;;;15.68;74.30
69955;BME280;57279;55.912;37.490;2023-05-24T04:24:05;99252.63;;;15.76;74.00
69955;BME280;57279;55.912;37.490;2023-05-24T04:26:31;99247.41;;;15.79;73.60
69955;BME280;57279;55.912;37.490;2023-05-24T04:28:58;99248.63;;;15.87;73.12
69955;BME280;57279;55.912;37.490;2023-05-24T04:31:25;99248.84;;;15.91;73.30
69955;BME280;57279;55.912;37.490;2023-05-24T04:33:57;99249.56;;;15.96;73.73
69955;BME280;57279;55.912;37.490;2023-05-24T04:36:24;99245.44;;;15.99;73.81
69955;BME280;57279;55.912;37.490;2023-05-24T04:38:50;99245.06;;;16.06;73.01
69955;BME280;57279;55.912;37.490;2023-05-24T04:41:18;99248.22;;;16.13;73.12
69955;BME280;57279;55.912;37.490;2023-05-24T04:43:44;99241.34;;;16.15;72.64
69955;BME280;57279;55.912;37.490;2023-05-24T04:46:10;99242.97;;;16.16;72.79
69955;BME280;57279;55.912;37.490;2023-05-24T04:48:35;99242.88;;;16.21;73.05
69955;BME280;57279;55.912;37.490;2023-05-24T04:51:01;99245.50;;;16.27;72.62
69955;BME280;57279;55.912;37.490;2023-05-24T04:53:27;99243.00;;;16.30;72.54
69955;BME280;57279;55.912;37.490;2023-05-24T04:55:53;99249.34;;;16.26;72.54
69955;BME280;57279;55.912;37.490;2023-05-24T04:58:18;99245.81;;;16.25;72.32
69955;BME280;57279;55.912;37.490;2023-05-24T05:00:44;99249.34;;;16.26;72.22
69955;BME280;57279;55.912;37.490;2023-05-24T05:03:10;99245.44;;;16.32;71.83
69955;BME280;57279;55.912;37.490;2023-05-24T05:05:36;99254.00;;;16.39;72.06
69955;BME280;57279;55.912;37.490;2023-05-24T05:08:02;99253.41;;;16.42;72.10
69955;BME280;57279;55.912;37.490;2023-05-24T05:10:28;99257.13;;;16.46;72.18
69955;BME280;57279;55.912;37.490;2023-05-24T05:12:54;99257.56;;;16.53;72.04
69955;BME280;57279;55.912;37.490;2023-05-24T05:15:21;99261.78;;;16.59;71.95
69955;BME280;57279;55.912;37.490;2023-05-24T05:17:48;99261.41;;;16.66;71.58
69955;BME280;57279;55.912;37.490;2023-05-24T05:20:13;99269.78;;;16.70;71.28
69955;BME280;57279;55.912;37.490;2023-05-24T05:22:45;99266.34;;;16.78;70.88
69955;BME280;57279;55.912;37.490;2023-05-24T05:25:10;99264.25;;;16.89;70.19
69955;BME280;57279;55.912;37.490;2023-05-24T05:27:36;99261.72;;;17.06;69.99
69955;BME280;57279;55.912;37.490;2023-05-24T05:30:02;99259.06;;;17.15;69.53
69955;BME280;57279;55.912;37.490;2023-05-24T05:32:29;99253.41;;;17.25;68.51
69955;BME280;57279;55.912;37.490;2023-05-24T05:34:54;99253.34;;;17.39;68.40
69955;BME280;57279;55.912;37.490;2023-05-24T05:37:20;99259.06;;;17.51;68.35
69955;BME280;57279;55.912;37.490;2023-05-24T05:39:46;99264.59;;;17.60;67.76
69955;BME280;57279;55.912;37.490;2023-05-24T05:42:11;99260.03;;;17.69;66.25
69955;BME280;57279;55.912;37.490;2023-05-24T05:44:37;99271.53;;;17.80;66.04
69955;BME280;57279;55.912;37.490;2023-05-24T05:47:03;99261.66;;;17.93;65.79
69955;BME280;57279;55.912;37.490;2023-05-24T05:49:31;99256.78;;;18.04;65.58
69955;BME280;57279;55.912;37.490;2023-05-24T05:52:01;99247.38;;;18.19;65.04
69955;BME280;57279;55.912;37.490;2023-05-24T05:54:27;99258.03;;;18.29;64.09
69955;BME280;57279;55.912;37.490;2023-05-24T05:56:53;99260.66;;;18.43;63.60
69955;BME280;57279;55.912;37.490;2023-05-24T05:59:19;99259.09;;;18.50;62.69
69955;BME280;57279;55.912;37.490;2023-05-24T06:01:44;99261.25;;;18.62;62.68
69955;BME280;57279;55.912;37.490;2023-05-24T06:04:12;99252.41;;;18.65;62.43
69955;BME280;57279;55.912;37.490;2023-05-24T06:06:38;99248.72;;;18.70;62.06
69955;BME280;57279;55.912;37.490;2023-05-24T06:09:03;99246.31;;;18.77;61.83
69955;BME280;57279;55.912;37.490;2023-05-24T06:11:30;99253.31;;;18.83;62.26
69955;BME280;57279;55.912;37.490;2023-05-24T06:13:56;99254.72;;;18.81;61.71
69955;BME280;57279;55.912;37.490;2023-05-24T06:16:21;99244.75;;;18.85;61.25
69955;BME280;57279;55.912;37.490;2023-05-24T06:18:47;99242.38;;;18.83;61.68
69955;BME280;57279;55.912;37.490;2023-05-24T06:21:16;99249.91;;;18.86;61.66
69955;BME280;57279;55.912;37.490;2023-05-24T06:23:41;99244.94;;;18.88;61.44
69955;BME280;57279;55.912;37.490;2023-05-24T06:26:08;99246.09;;;18.87;61.75
69955;BME280;57279;55.912;37.490;2023-05-24T06:28:37;99240.13;;;18.85;62.18
69955;BME280;57279;55.912;37.490;2023-05-24T06:31:06;99235.63;;;18.89;61.78
69955;BME280;57279;55.912;37.490;2023-05-24T06:33:32;99235.78;;;18.93;61.34
69955;BME280;57279;55.912;37.490;2023-05-24T06:35:57;99239.00;;;18.95;61.49
69955;BME280;57279;55.912;37.490;2023-05-24T06:38:23;99238.53;;;19.02;61.42
69955;BME280;57279;55.912;37.490;2023-05-24T06:40:49;99246.59;;;19.07;61.19
69955;BME280;57279;55.912;37.490;2023-05-24T06:43:15;99245.66;;;19.11;60.91
69955;BME280;57279;55.912;37.490;2023-05-24T06:45:42;99237.44;;;19.11;60.64
69955;BME280;57279;55.912;37.490;2023-05-24T06:48:08;99236.31;;;19.12;60.73
69955;BME280;57279;55.912;37.490;2023-05-24T06:50:34;99228.91;;;19.13;61.24
69955;BME280;57279;55.912;37.490;2023-05-24T06:53:01;99229.56;;;19.10;60.94
69955;BME280;57279;55.912;37.490;2023-05-24T06:55:29;99231.63;;;19.13;61.26
69955;BME280;57279;55.912;37.490;2023-05-24T06:57:55;99236.63;;;19.11;60.32
69955;BME280;57279;55.912;37.490;2023-05-24T07:00:21;99235.03;;;19.10;60.45
69955;BME280;57279;55.912;37.490;2023-05-24T07:02:47;99243.06;;;19.15;60.62
69955;BME280;57279;55.912;37.490;2023-05-24T07:05:13;99235.84;;;19.19;60.62
69955;BME280;57279;55.912;37.490;2023-05-24T07:07:41;99237.75;;;19.19;60.25
69955;BME280;57279;55.912;37.490;2023-05-24T07:10:08;99240.19;;;19.20;60.34
69955;BME280;57279;55.912;37.490;2023-05-24T07:12:36;99241.97;;;19.25;60.25
69955;BME280;57279;55.912;37.490;2023-05-24T07:15:05;99239.06;;;19.21;59.50
69955;BME280;57279;55.912;37.490;2023-05-24T07:17:31;99240.00;;;19.17;59.69
69955;BME280;57279;55.912;37.490;2023-05-24T07:19:59;99236.94;;;19.09;60.05
69955;BME280;57279;55.912;37.490;2023-05-24T07:22:25;99241.47;;;19.14;59.84
69955;BME280;57279;55.912;37.490;2023-05-24T07:24:54;99237.44;;;19.20;59.94
69955;BME280;57279;55.912;37.490;2023-05-24T07:27:20;99240.31;;;19.15;59.52
69955;BME280;57279;55.912;37.490;2023-05-24T07:29:47;99238.09;;;19.26;59.94
69955;BME280;57279;55.912;37.490;2023-05-24T07:32:14;99241.31;;;19.28;59.24
69955;BME280;57279;55.912;37.490;2023-05-24T07:34:40;99239.25;;;19.25;58.97
69955;BME280;57279;55.912;37.490;2023-05-24T07:37:07;99237.31;;;19.25;59.00
69955;BME280;57279;55.912;37.490;2023-05-24T07:39:33;99240.84;;;19.34;59.68
69955;BME280;57279;55.912;37.490;2023-05-24T07:41:59;99248.56;;;19.41;59.44
69955;BME280;57279;55.912;37.490;2023-05-24T07:44:26;99240.69;;;19.48;59.12
69955;BME280;57279;55.912;37.490;2023-05-24T07:46:51;99243.75;;;19.64;58.97
69955;BME280;57279;55.912;37.490;2023-05-24T07:49:17;99245.06;;;19.76;58.64
69955;BME280;57279;55.912;37.490;2023-05-24T07:51:44;99245.69;;;19.81;58.66
69955;BME280;57279;55.912;37.490;2023-05-24T07:54:09;99254.88;;;19.85;58.16
69955;BME280;57279;55.912;37.490;2023-05-24T07:56:35;99255.03;;;19.89;58.18
69955;BME280;57279;55.912;37.490;2023-05-24T07:59:02;99257.28;;;19.96;57.03
69955;BME280;57279;55.912;37.490;2023-05-24T08:01:33;99256.63;;;19.99;57.46
69955;BME280;57279;55.912;37.490;2023-05-24T08:04:03;99255.03;;;19.98;56.71
69955;BME280;57279;55.912;37.490;2023-05-24T08:06:29;99260.63;;;20.10;56.33
69955;BME280;57279;55.912;37.490;2023-05-24T08:08:57;99249.19;;;20.17;56.75
69955;BME280;57279;55.912;37.490;2023-05-24T08:11:23;99248.50;;;20.20;56.98
69955;BME280;57279;55.912;37.490;2023-05-24T08:13:49;99249.34;;;20.20;56.66
69955;BME280;57279;55.912;37.490;2023-05-24T08:16:15;99253.50;;;20.26;56.76
69955;BME280;57279;55.912;37.490;2023-05-24T08:18:41;99247.34;;;20.29;56.07
69955;BME280;57279;55.912;37.490;2023-05-24T08:21:06;99249.59;;;20.36;56.68
69955;BME280;57279;55.912;37.490;2023-05-24T08:23:33;99250.06;;;20.38;56.20
69955;BME280;57279;55.912;37.490;2023-05-24T08:25:59;99251.22;;;20.37;55.79
69955;BME280;57279;55.912;37.490;2023-05-24T08:28:25;99253.78;;;20.42;55.82
69955;BME280;57279;55.912;37.490;2023-05-24T08:30:52;99254.25;;;20.44;55.89
69955;BME280;57279;55.912;37.490;2023-05-24T08:33:18;99256.81;;;20.49;55.99
69955;BME280;57279;55.912;37.490;2023-05-24T08:35:43;99252.94;;;20.50;55.02
69955;BME280;57279;55.912;37.490;2023-05-24T08:38:09;99247.13;;;20.61;55.01
69955;BME280;57279;55.912;37.490;2023-05-24T08:40:35;99243.84;;;20.67;55.74
69955;BME280;57279;55.912;37.490;2023-05-24T08:43:01;99255.19;;;20.66;55.17
69955;BME280;57279;55.912;37.490;2023-05-24T08:45:31;99250.31;;;20.72;55.24
69955;BME280;57279;55.912;37.490;2023-05-24T08:47:58;99247.22;;;20.73;54.39
69955;BME280;57279;55.912;37.490;2023-05-24T08:50:24;99244.44;;;20.82;54.99
69955;BME280;57279;55.912;37.490;2023-05-24T08:52:51;99245.91;;;20.79;53.29
69955;BME280;57279;55.912;37.490;2023-05-24T08:55:19;99243.44;;;20.86;53.43
69955;BME280;57279;55.912;37.490;2023-05-24T08:57:46;99246.78;;;20.92;53.93
69955;BME280;57279;55.912;37.490;2023-05-24T09:00:13;99252.56;;;20.99;54.67
69955;BME280;57279;55.912;37.490;2023-05-24T09:02:42;99247.41;;;20.98;54.07
69955;BME280;57279;55.912;37.490;2023-05-24T09:05:10;99247.47;;;20.89;53.12
69955;BME280;57279;55.912;37.490;2023-05-24T09:07:37;99243.44;;;20.86;53.27
69955;BME280;57279;55.912;37.490;2023-05-24T09:10:05;99243.34;;;20.74;52.89
69955;BME280;57279;55.912;37.490;2023-05-24T09:12:32;99249.31;;;20.76;53.81
69955;BME280;57279;55.912;37.490;2023-05-24T09:14:58;99245.91;;;20.79;54.47
69955;BME280;57279;55.912;37.490;2023-05-24T09:17:24;99251.03;;;20.81;53.76
69955;BME280;57279;55.912;37.490;2023-05-24T09:19:51;99240.91;;;20.81;54.71
69955;BME280;57279;55.912;37.490;2023-05-24T09:22:18;99242.03;;;20.80;54.19
69955;BME280;57279;55.912;37.490;2023-05-24T09:24:51;99242.34;;;20.79;54.54
69955;BME280;57279;55.912;37.490;2023-05-24T09:27:18;99243.31;;;20.83;53.98
69955;BME280;57279;55.912;37.490;2023-05-24T09:29:48;99240.69;;;20.86;54.49
69955;BME280;57279;55.912;37.490;2023-05-24T09:32:17;99246.78;;;20.92;54.18
69955;BME280;57279;55.912;37.490;2023-05-24T09:34:44;99245.03;;;20.96;53.75
69955;BME280;57279;55.912;37.490;2023-05-24T09:37:15;99243.72;;;20.94;53.10
69955;BME280;57279;55.912;37.490;2023-05-24T09:39:45;99246.66;;;20.88;52.97
69955;BME280;57279;55.912;37.490;2023-05-24T09:42:21;99247.81;;;20.87;53.04
69955;BME280;57279;55.912;37.490;2023-05-24T09:45:20;99250.84;;;20.95;53.17
69955;BME280;57279;55.912;37.490;2023-05-24T09:47:51;99255.00;;;21.01;53.75
69955;BME280;57279;55.912;37.490;2023-05-24T09:50:17;99252.06;;;21.06;53.27
69955;BME280;57279;55.912;37.490;2023-05-24T09:52:43;99255.56;;;21.15;52.89
69955;BME280;57279;55.912;37.490;2023-05-24T09:55:17;99259.72;;;21.21;52.38
69955;BME280;57279;55.912;37.490;2023-05-24T09:57:44;99254.50;;;21.28;52.78
69955;BME280;57279;55.912;37.490;2023-05-24T10:00:15;99256.84;;;21.39;52.57
69955;BME280;57279;55.912;37.490;2023-05-24T10:02:59;99258.88;;;21.51;53.01
69955;BME280;57279;55.912;37.490;2023-05-24T10:05:25;99253.38;;;21.51;52.37
69955;BME280;57279;55.912;37.490;2023-05-24T10:07:51;99248.63;;;21.60;51.96
69955;BME280;57279;55.912;37.490;2023-05-24T10:10:17;99246.47;;;21.65;51.41
69955;BME280;57279;55.912;37.490;2023-05-24T10:12:43;99240.31;;;21.69;51.09
69955;BME280;57279;55.912;37.490;2023-05-24T10:15:11;99247.94;;;21.84;51.35
69955;BME280;57279;55.912;37.490;2023-05-24T10:17:37;99255.22;;;22.01;51.56
69955;BME280;57279;55.912;37.490;2023-05-24T10:20:03;99258.44;;;22.03;50.39
69955;BME280;57279;55.912;37.490;2023-05-24T10:22:31;99261.66;;;22.17;51.12
69955;BME280;57279;55.912;37.490;2023-05-24T10:25:02;99256.91;;;22.39;49.91
69955;BME280;57279;55.912;37.490;2023-05-24T10:27:31;99256.16;;;22.51;48.15
69955;BME280;57279;55.912;37.490;2023-05-24T10:32:46;99259.34;;;22.65;47.97
69955;BME280;57279;55.912;37.490;2023-05-24T10:35:13;99262.91;;;22.53;47.80
69955;BME280;57279;55.912;37.490;2023-05-24T10:37:41;99262.31;;;22.48;47.14
69955;BME280;57279;55.912;37.490;2023-05-24T10:40:16;99256.38;;;22.45;48.05
69955;BME280;57279;55.912;37.490;2023-05-24T10:42:46;99268.50;;;22.32;48.28
69955;BME280;57279;55.912;37.490;2023-05-24T10:47:47;99263.66;;;22.29;48.44
69955;BME280;57279;55.912;37.490;2023-05-24T10:50:17;99265.75;;;22.32;48.16
69955;BME280;57279;55.912;37.490;2023-05-24T10:52:43;99252.28;;;22.18;48.64
69955;BME280;57279;55.912;37.490;2023-05-24T10:55:10;99261.78;;;22.21;49.27
69955;BME280;57279;55.912;37.490;2023-05-24T10:57:38;99267.16;;;22.17;48.47
69955;BME280;57279;55.912;37.490;2023-05-24T11:02:49;99263.56;;;22.04;48.84
69955;BME280;57279;55.912;37.490;2023-05-24T11:05:15;99264.59;;;22.00;49.05
69955;BME280;57279;55.912;37.490;2023-05-24T11:07:41;99261.03;;;21.99;49.50
69955;BME280;57279;55.912;37.490;2023-05-24T11:10:13;99274.19;;;21.94;49.28
69955;BME280;57279;55.912;37.490;2023-05-24T11:12:42;99276.34;;;21.88;49.38
69955;BME280;57279;55.912;37.490;2023-05-24T11:15:09;99267.69;;;21.77;50.12
69955;BME280;57279;55.912;37.490;2023-05-24T11:18:15;99272.78;;;21.66;49.92
69955;BME280;57279;55.912;37.490;2023-05-24T11:20:44;99273.81;;;21.62;50.58
69955;BME280;57279;55.912;37.490;2023-05-24T11:23:13;99277.13;;;21.55;50.57
69955;BME280;57279;55.912;37.490;2023-05-24T11:25:39;99278.75;;;21.47;51.17
69955;BME280;57279;55.912;37.490;2023-05-24T11:28:06;99276.53;;;21.41;50.77
69955;BME280;57279;55.912;37.490;2023-05-24T11:30:45;99281.75;;;21.34;51.04
69955;BME280;57279;55.912;37.490;2023-05-24T11:33:20;99280.47;;;21.31;50.97
69955;BME280;57279;55.912;37.490;2023-05-24T11:35:49;99283.09;;;21.27;51.54
69955;BME280;57279;55.912;37.490;2023-05-24T11:38:15;99288.75;;;21.22;51.42
69955;BME280;57279;55.912;37.490;2023-05-24T11:40:42;99290.56;;;21.18;51.41
69955;BME280;57279;55.912;37.490;2023-05-24T11:43:12;99293.16;;;21.15;51.78
69955;BME280;57279;55.912;37.490;2023-05-24T11:45:42;99285.16;;;21.09;51.85
69955;BME280;57279;55.912;37.490;2023-05-24T11:48:11;99289.53;;;21.02;51.01
69955;BME280;57279;55.912;37.490;2023-05-24T11:50:42;99294.06;;;20.98;51.37
69955;BME280;57279;55.912;37.490;2023-05-24T11:53:11;99288.50;;;20.85;51.50
69955;BME280;57279;55.912;37.490;2023-05-24T11:55:38;99296.91;;;20.80;52.10
69955;BME280;57279;55.912;37.490;2023-05-24T12:00:37;99294.84;;;20.68;52.37
69955;BME280;57279;55.912;37.490;2023-05-24T12:03:04;99291.31;;;20.68;52.72
69955;BME280;57279;55.912;37.490;2023-05-24T12:05:32;99291.31;;;20.68;52.91
69955;BME280;57279;55.912;37.490;2023-05-24T12:08:05;99290.16;;;20.69;53.15
69955;BME280;57279;55.912;37.490;2023-05-24T12:10:34;99294.00;;;20.77;52.85
69955;BME280;57279;55.912;37.490;2023-05-24T12:13:01;99283.31;;;20.84;52.84
69955;BME280;57279;55.912;37.490;2023-05-24T12:15:28;99290.19;;;20.99;52.98
69955;BME280;57279;55.912;37.490;2023-05-24T12:17:56;99289.16;;;21.12;52.36
69955;BME280;57279;55.912;37.490;2023-05-24T12:20:22;99290.09;;;21.16;52.30
69955;BME280;57279;55.912;37.490;2023-05-24T12:22:51;99289.69;;;21.26;51.52
69955;BME280;57279;55.912;37.490;2023-05-24T12:25:17;99274.75;;;21.45;51.20
69955;BME280;57279;55.912;37.490;2023-05-24T12:27:53;99275.31;;;21.59;49.87
69955;BME280;57279;55.912;37.490;2023-05-24T12:30:25;99275.81;;;21.74;49.87
69955;BME280;57279;55.912;37.490;2023-05-24T12:32:51;99273.47;;;21.84;49.83
69955;BME280;57279;55.912;37.490;2023-05-24T12:35:20;99275.19;;;21.89;49.90
69955;BME280;57279;55.912;37.490;2023-05-24T12:37:47;99271.66;;;21.89;50.07
69955;BME280;57279;55.912;37.490;2023-05-24T12:40:22;99269.09;;;21.83;50.38
69955;BME280;57279;55.912;37.490;2023-05-24T12:42:55;99274.69;;;21.75;50.00
69955;BME280;57279;55.912;37.490;2023-05-24T12:45:23;99276.84;;;21.69;50.22
69955;BME280;57279;55.912;37.490;2023-05-24T12:47:51;99275.06;;;21.64;50.43
69955;BME280;57279;55.912;37.490;2023-05-24T12:50:21;99266.03;;;21.64;50.81
69955;BME280;57279;55.912;37.490;2023-05-24T12:52:48;99270.59;;;21.60;50.46
69955;BME280;57279;55.912;37.490;2023-05-24T12:55:24;99277.56;;;21.57;50.23
69955;BME280;57279;55.912;37.490;2023-05-24T12:57:51;99272.88;;;21.58;50.65
69955;BME280;57279;55.912;37.490;2023-05-24T13:00:23;99266.69;;;21.61;51.04
69955;BME280;57279;55.912;37.490;2023-05-24T13:02:52;99268.31;;;21.62;51.27
69955;BME280;57279;55.912;37.490;2023-05-24T13:05:21;99266.38;;;21.62;51.35
69955;BME280;57279;55.912;37.490;2023-05-24T13:07:48;99266.84;;;21.64;51.07
69955;BME280;57279;55.912;37.490;2023-05-24T13:10:14;99269.13;;;21.62;51.12
69955;BME280;57279;55.912;37.490;2023-05-24T13:12:40;99269.13;;;21.62;50.82
69955;BME280;57279;55.912;37.490;2023-05-24T13:15:06;99277.16;;;21.67;51.16
69955;BME280;57279;55.912;37.490;2023-05-24T13:17:33;99274.22;;;21.73;50.74
69955;BME280;57279;55.912;37.490;2023-05-24T13:20:01;99273.88;;;21.74;50.63